sensor_id;sensor_type;location;lat;lon;timestamp;P1;durP1;ratioP1;P2;durP2;ratioP2
6809;SDS011;3443;48.812;9.112;2022-12-20T00:00:47;6.35;;;5.40;;
6809;SDS011;3443;48.812;9.112;2022-12-20T00:03:12;5.65;;;5.15;;
6809;SDS011;3443;48.812;9.112;2022-12-20T00:05:39;7.72;;;5.68;;
6809;SDS011;3443;48.812;9.112;2022-12-20T00:08:06;7.40;;;5.63;;
6809;SDS011;3443;48.812;9.112;2022-12-20T00:10:35;9.10;;;5.50;;
6809;SDS011;3443;48.812;9.112;2022-12-20T00:13:01;7.00;;;5.45;;
6809;SDS011;3443;48.812;9.112;2022-12-20T00:15:27;9.20;;;5.40;;
6809;SDS011;3443;48.812;9.112;2022-12-20T00:17:52;7.35;;;5.60;;
6809;SDS011;3443;48.812;9.112;2022-12-20T00:20:18;6.38;;;5.35;;
6809;SDS011;3443;48.812;9.112;2022-12-20T00:22:43;7.43;;;6.13;;
6809;SDS011;3443;48.812;9.112;2022-12-20T00:25:09;9.10;;;6.03;;
6809;SDS011;3443;48.812;9.112;2022-12-20T00:27:35;6.88;;;5.90;;
6809;SDS011;3443;48.812;9.112;2022-12-20T00:30:01;8.32;;;6.03;;
6809;SDS011;3443;48.812;9.112;2022-12-20T00:32:27;6.47;;;5.68;;
6809;SDS011;3443;48.812;9.112;2022-12-20T00:34:52;7.28;;;5.60;;
6809;SDS011;3443;48.812;9.112;2022-12-20T00:37:18;6.25;;;5.63;;
6809;SDS011;3443;48.812;9.112;2022-12-20T00:39:43;7.05;;;5.68;;
6809;SDS011;3443;48.812;9.112;2022-12-20T00:42:09;6.82;;;5.50;;
6809;SDS011;3443;48.812;9.112;2022-12-20T00:44:35;7.32;;;5.63;;
6809;SDS011;3443;48.812;9.112;2022-12-20T00:47:00;6.80;;;5.50;;
6809;SDS011;3443;48.812;9.112;2022-12-20T00:51:52;6.63;;;5.25;;
6809;SDS011;3443;48.812;9.112;2022-12-20T00:54:17;6.30;;;5.65;;
6809;SDS011;3443;48.812;9.112;2022-12-20T00:56:43;11.55;;;6.07;;
6809;SDS011;3443;48.812;9.112;2022-12-20T00:59:08;7.40;;;6.00;;
6809;SDS011;3443;48.812;9.112;2022-12-20T01:01:34;10.38;;;6.32;;
6809;SDS011;3443;48.812;9.112;2022-12-20T01:04:00;7.88;;;6.32;;
6809;SDS011;3443;48.812;9.112;2022-12-20T01:06:26;7.38;;;6.22;;
6809;SDS011;3443;48.812;9.112;2022-12-20T01:08:53;8.57;;;6.50;;
6809;SDS011;3443;48.812;9.112;2022-12-20T01:11:21;8.23;;;6.55;;
6809;SDS011;3443;48.812;9.112;2022-12-20T01:13:49;6.60;;;6.00;;
6809;SDS011;3443;48.812;9.112;2022-12-20T01:16:21;7.28;;;5.38;;
6809;SDS011;3443;48.812;9.112;2022-12-20T01:18:49;9.10;;;5.82;;
6809;SDS011;3443;48.812;9.112;2022-12-20T01:21:15;9.85;;;6.68;;
6809;SDS011;3443;48.812;9.112;2022-12-20T01:23:42;7.05;;;5.45;;
6809;SDS011;3443;48.812;9.112;2022-12-20T01:26:09;7.13;;;5.35;;
6809;SDS011;3443;48.812;9.112;2022-12-20T01:28:37;6.95;;;5.38;;
6809;SDS011;3443;48.812;9.112;2022-12-20T01:31:08;5.63;;;5.00;;
6809;SDS011;3443;48.812;9.112;2022-12-20T01:33:35;7.07;;;5.85;;
6809;SDS011;3443;48.812;9.112;2022-12-20T01:36:02;8.38;;;6.10;;
6809;SDS011;3443;48.812;9.112;2022-12-20T01:38:30;6.65;;;5.68;;
6809;SDS011;3443;48.812;9.112;2022-12-20T01:40:56;7.50;;;5.68;;
6809;SDS011;3443;48.812;9.112;2022-12-20T01:43:23;8.63;;;6.30;;
6809;SDS011;3443;48.812;9.112;2022-12-20T01:45:50;6.20;;;5.22;;
6809;SDS011;3443;48.812;9.112;2022-12-20T01:48:25;7.47;;;5.88;;
6809;SDS011;3443;48.812;9.112;2022-12-20T01:50:51;6.43;;;5.68;;
6809;SDS011;3443;48.812;9.112;2022-12-20T01:53:17;6.72;;;5.60;;
6809;SDS011;3443;48.812;9.112;2022-12-20T01:55:47;7.70;;;5.38;;
6809;SDS011;3443;48.812;9.112;2022-12-20T01:58:13;7.38;;;5.63;;
6809;SDS011;3443;48.812;9.112;2022-12-20T02:00:42;6.43;;;5.82;;
6809;SDS011;3443;48.812;9.112;2022-12-20T02:03:08;6.97;;;5.63;;
6809;SDS011;3443;48.812;9.112;2022-12-20T02:05:37;7.90;;;5.97;;
6809;SDS011;3443;48.812;9.112;2022-12-20T02:08:05;7.88;;;6.30;;
6809;SDS011;3443;48.812;9.112;2022-12-20T02:10:36;6.88;;;5.88;;
6809;SDS011;3443;48.812;9.112;2022-12-20T02:16:39;7.38;;;5.90;;
6809;SDS011;3443;48.812;9.112;2022-12-20T02:19:31;7.68;;;5.53;;
6809;SDS011;3443;48.812;9.112;2022-12-20T02:22:33;9.98;;;5.65;;
6809;SDS011;3443;48.812;9.112;2022-12-20T02:30:34;7.60;;;5.60;;
6809;SDS011;3443;48.812;9.112;2022-12-20T02:33:09;7.32;;;6.22;;
6809;SDS011;3443;48.812;9.112;2022-12-20T02:35:37;7.05;;;5.93;;
6809;SDS011;3443;48.812;9.112;2022-12-20T02:38:04;7.20;;;6.22;;
6809;SDS011;3443;48.812;9.112;2022-12-20T02:43:46;7.47;;;5.95;;
6809;SDS011;3443;48.812;9.112;2022-12-20T02:46:41;6.47;;;5.63;;
6809;SDS011;3443;48.812;9.112;2022-12-20T02:49:09;8.40;;;6.40;;
6809;SDS011;3443;48.812;9.112;2022-12-20T02:51:38;8.23;;;6.03;;
6809;SDS011;3443;48.812;9.112;2022-12-20T02:54:06;6.47;;;5.82;;
6809;SDS011;3443;48.812;9.112;2022-12-20T02:56:34;6.43;;;5.47;;
6809;SDS011;3443;48.812;9.112;2022-12-20T02:59:20;8.25;;;6.07;;
6809;SDS011;3443;48.812;9.112;2022-12-20T03:02:10;6.30;;;5.32;;
6809;SDS011;3443;48.812;9.112;2022-12-20T03:04:36;7.15;;;5.32;;
6809;SDS011;3443;48.812;9.112;2022-12-20T03:07:05;7.15;;;5.30;;
6809;SDS011;3443;48.812;9.112;2022-12-20T03:09:36;6.75;;;5.18;;
6809;SDS011;3443;48.812;9.112;2022-12-20T03:12:04;9.43;;;5.78;;
6809;SDS011;3443;48.812;9.112;2022-12-20T03:14:30;7.05;;;5.88;;
6809;SDS011;3443;48.812;9.112;2022-12-20T03:16:56;6.80;;;5.38;;
6809;SDS011;3443;48.812;9.112;2022-12-20T03:19:22;7.13;;;5.27;;
6809;SDS011;3443;48.812;9.112;2022-12-20T03:21:48;6.43;;;5.88;;
6809;SDS011;3443;48.812;9.112;2022-12-20T03:24:14;6.35;;;5.50;;
6809;SDS011;3443;48.812;9.112;2022-12-20T03:26:40;6.32;;;5.47;;
6809;SDS011;3443;48.812;9.112;2022-12-20T03:29:06;7.53;;;6.03;;
6809;SDS011;3443;48.812;9.112;2022-12-20T03:31:32;6.60;;;5.43;;
6809;SDS011;3443;48.812;9.112;2022-12-20T03:33:58;8.32;;;5.20;;
6809;SDS011;3443;48.812;9.112;2022-12-20T03:36:23;6.30;;;5.53;;
6809;SDS011;3443;48.812;9.112;2022-12-20T03:38:50;5.83;;;5.03;;
6809;SDS011;3443;48.812;9.112;2022-12-20T03:41:16;7.40;;;5.00;;
6809;SDS011;3443;48.812;9.112;2022-12-20T03:43:42;6.03;;;5.40;;
6809;SDS011;3443;48.812;9.112;2022-12-20T03:46:07;5.47;;;4.90;;
6809;SDS011;3443;48.812;9.112;2022-12-20T03:48:33;8.30;;;5.75;;
6809;SDS011;3443;48.812;9.112;2022-12-20T03:50:59;6.45;;;5.38;;
6809;SDS011;3443;48.812;9.112;2022-12-20T03:53:24;8.27;;;5.00;;
6809;SDS011;3443;48.812;9.112;2022-12-20T03:55:50;5.43;;;4.80;;
6809;SDS011;3443;48.812;9.112;2022-12-20T03:58:15;6.60;;;5.10;;
6809;SDS011;3443;48.812;9.112;2022-12-20T04:00:41;5.32;;;4.82;;
6809;SDS011;3443;48.812;9.112;2022-12-20T04:03:06;5.10;;;4.70;;
6809;SDS011;3443;48.812;9.112;2022-12-20T04:05:32;4.78;;;4.28;;
6809;SDS011;3443;48.812;9.112;2022-12-20T04:07:58;5.15;;;4.57;;
6809;SDS011;3443;48.812;9.112;2022-12-20T04:10:24;5.40;;;4.55;;
6809;SDS011;3443;48.812;9.112;2022-12-20T04:12:49;5.70;;;4.30;;
6809;SDS011;3443;48.812;9.112;2022-12-20T04:15:15;5.38;;;4.45;;
6809;SDS011;3443;48.812;9.112;2022-12-20T04:17:41;5.18;;;4.63;;
6809;SDS011;3443;48.812;9.112;2022-12-20T04:20:07;4.78;;;4.32;;
6809;SDS011;3443;48.812;9.112;2022-12-20T04:22:49;6.03;;;4.40;;
6809;SDS011;3443;48.812;9.112;2022-12-20T04:25:16;5.32;;;4.50;;
6809;SDS011;3443;48.812;9.112;2022-12-20T04:27:43;5.43;;;4.45;;
6809;SDS011;3443;48.812;9.112;2022-12-20T04:30:09;4.85;;;4.18;;
6809;SDS011;3443;48.812;9.112;2022-12-20T04:32:36;4.97;;;4.07;;
6809;SDS011;3443;48.812;9.112;2022-12-20T04:35:02;5.22;;;4.25;;
6809;SDS011;3443;48.812;9.112;2022-12-20T04:37:28;4.32;;;3.92;;
6809;SDS011;3443;48.812;9.112;2022-12-20T04:39:54;5.32;;;3.92;;
6809;SDS011;3443;48.812;9.112;2022-12-20T04:42:20;4.78;;;4.05;;
6809;SDS011;3443;48.812;9.112;2022-12-20T04:44:46;5.45;;;4.07;;
6809;SDS011;3443;48.812;9.112;2022-12-20T04:47:12;4.60;;;4.20;;
6809;SDS011;3443;48.812;9.112;2022-12-20T04:49:38;5.57;;;4.18;;
6809;SDS011;3443;48.812;9.112;2022-12-20T04:52:03;4.53;;;4.13;;
6809;SDS011;3443;48.812;9.112;2022-12-20T04:54:48;5.35;;;4.35;;
6809;SDS011;3443;48.812;9.112;2022-12-20T04:57:13;4.40;;;3.97;;
6809;SDS011;3443;48.812;9.112;2022-12-20T04:59:39;5.30;;;3.90;;
6809;SDS011;3443;48.812;9.112;2022-12-20T05:05:31;4.10;;;3.67;;
6809;SDS011;3443;48.812;9.112;2022-12-20T05:07:59;6.90;;;5.70;;
6809;SDS011;3443;48.812;9.112;2022-12-20T05:13:47;17.52;;;8.95;;
6809;SDS011;3443;48.812;9.112;2022-12-20T05:16:12;34.78;;;17.70;;
6809;SDS011;3443;48.812;9.112;2022-12-20T05:18:38;15.02;;;8.23;;
6809;SDS011;3443;48.812;9.112;2022-12-20T05:21:03;8.43;;;5.45;;
6809;SDS011;3443;48.812;9.112;2022-12-20T05:23:47;4.97;;;4.10;;
6809;SDS011;3443;48.812;9.112;2022-12-20T05:26:35;6.57;;;5.35;;
6809;SDS011;3443;48.812;9.112;2022-12-20T05:29:02;4.40;;;4.00;;
6809;SDS011;3443;48.812;9.112;2022-12-20T05:31:28;5.50;;;3.70;;
6809;SDS011;3443;48.812;9.112;2022-12-20T05:33:54;6.05;;;4.80;;
6809;SDS011;3443;48.812;9.112;2022-12-20T05:36:20;12.00;;;7.00;;
6809;SDS011;3443;48.812;9.112;2022-12-20T05:38:46;30.23;;;14.18;;
6809;SDS011;3443;48.812;9.112;2022-12-20T05:41:11;36.25;;;15.70;;
6809;SDS011;3443;48.812;9.112;2022-12-20T05:43:37;13.52;;;6.93;;
6809;SDS011;3443;48.812;9.112;2022-12-20T05:46:03;14.95;;;6.53;;
6809;SDS011;3443;48.812;9.112;2022-12-20T05:48:28;37.58;;;14.93;;
6809;SDS011;3443;48.812;9.112;2022-12-20T05:50:54;8.70;;;5.78;;
6809;SDS011;3443;48.812;9.112;2022-12-20T05:53:20;6.38;;;4.90;;
6809;SDS011;3443;48.812;9.112;2022-12-20T05:55:50;4.97;;;4.30;;
6809;SDS011;3443;48.812;9.112;2022-12-20T05:58:17;5.72;;;4.63;;
6809;SDS011;3443;48.812;9.112;2022-12-20T06:00:43;7.15;;;5.10;;
6809;SDS011;3443;48.812;9.112;2022-12-20T06:03:09;6.80;;;5.28;;
6809;SDS011;3443;48.812;9.112;2022-12-20T06:05:36;7.90;;;5.10;;
6809;SDS011;3443;48.812;9.112;2022-12-20T06:08:05;5.85;;;5.07;;
6809;SDS011;3443;48.812;9.112;2022-12-20T06:10:32;7.20;;;5.28;;
6809;SDS011;3443;48.812;9.112;2022-12-20T06:12:58;8.18;;;4.50;;
6809;SDS011;3443;48.812;9.112;2022-12-20T06:15:25;4.00;;;3.55;;
6809;SDS011;3443;48.812;9.112;2022-12-20T06:17:51;5.45;;;4.00;;
6809;SDS011;3443;48.812;9.112;2022-12-20T06:20:17;4.18;;;3.53;;
6809;SDS011;3443;48.812;9.112;2022-12-20T06:22:42;3.70;;;3.35;;
6809;SDS011;3443;48.812;9.112;2022-12-20T06:25:09;4.55;;;4.10;;
6809;SDS011;3443;48.812;9.112;2022-12-20T06:27:36;6.95;;;4.45;;
6809;SDS011;3443;48.812;9.112;2022-12-20T06:30:05;7.22;;;5.20;;
6809;SDS011;3443;48.812;9.112;2022-12-20T06:32:32;4.88;;;4.15;;
6809;SDS011;3443;48.812;9.112;2022-12-20T06:34:58;5.68;;;4.45;;
6809;SDS011;3443;48.812;9.112;2022-12-20T06:37:23;5.07;;;4.40;;
6809;SDS011;3443;48.812;9.112;2022-12-20T06:39:49;6.80;;;5.03;;
6809;SDS011;3443;48.812;9.112;2022-12-20T06:42:15;8.75;;;5.40;;
6809;SDS011;3443;48.812;9.112;2022-12-20T06:44:40;10.98;;;6.65;;
6809;SDS011;3443;48.812;9.112;2022-12-20T06:47:06;12.82;;;6.47;;
6809;SDS011;3443;48.812;9.112;2022-12-20T06:49:31;7.50;;;5.88;;
6809;SDS011;3443;48.812;9.112;2022-12-20T06:51:57;7.22;;;6.03;;
6809;SDS011;3443;48.812;9.112;2022-12-20T06:54:23;8.45;;;6.35;;
6809;SDS011;3443;48.812;9.112;2022-12-20T06:56:48;12.18;;;8.25;;
6809;SDS011;3443;48.812;9.112;2022-12-20T06:59:14;8.27;;;5.97;;
6809;SDS011;3443;48.812;9.112;2022-12-20T07:01:39;8.23;;;6.32;;
6809;SDS011;3443;48.812;9.112;2022-12-20T07:04:05;8.15;;;6.03;;
6809;SDS011;3443;48.812;9.112;2022-12-20T07:06:30;10.52;;;5.88;;
6809;SDS011;3443;48.812;9.112;2022-12-20T07:08:56;9.07;;;6.60;;
6809;SDS011;3443;48.812;9.112;2022-12-20T07:11:22;9.40;;;6.20;;
6809;SDS011;3443;48.812;9.112;2022-12-20T07:13:48;6.70;;;6.05;;
6809;SDS011;3443;48.812;9.112;2022-12-20T07:16:14;9.15;;;6.32;;
6809;SDS011;3443;48.812;9.112;2022-12-20T07:18:40;9.57;;;6.45;;
6809;SDS011;3443;48.812;9.112;2022-12-20T07:21:05;10.95;;;6.47;;
6809;SDS011;3443;48.812;9.112;2022-12-20T07:23:31;8.98;;;6.47;;
6809;SDS011;3443;48.812;9.112;2022-12-20T07:25:58;9.20;;;6.07;;
6809;SDS011;3443;48.812;9.112;2022-12-20T07:28:25;10.85;;;6.03;;
6809;SDS011;3443;48.812;9.112;2022-12-20T07:30:51;8.05;;;5.93;;
6809;SDS011;3443;48.812;9.112;2022-12-20T07:33:17;12.85;;;7.38;;
6809;SDS011;3443;48.812;9.112;2022-12-20T07:35:43;8.98;;;6.57;;
6809;SDS011;3443;48.812;9.112;2022-12-20T07:38:11;9.17;;;5.90;;
6809;SDS011;3443;48.812;9.112;2022-12-20T07:40:40;6.45;;;5.78;;
6809;SDS011;3443;48.812;9.112;2022-12-20T07:43:09;9.98;;;6.20;;
6809;SDS011;3443;48.812;9.112;2022-12-20T07:45:35;8.27;;;5.78;;
6809;SDS011;3443;48.812;9.112;2022-12-20T07:48:02;9.93;;;7.10;;
6809;SDS011;3443;48.812;9.112;2022-12-20T07:50:28;8.90;;;6.03;;
6809;SDS011;3443;48.812;9.112;2022-12-20T07:52:56;8.13;;;6.10;;
6809;SDS011;3443;48.812;9.112;2022-12-20T07:55:23;8.05;;;6.32;;
6809;SDS011;3443;48.812;9.112;2022-12-20T07:57:50;10.43;;;6.35;;
6809;SDS011;3443;48.812;9.112;2022-12-20T08:00:19;9.27;;;6.68;;
6809;SDS011;3443;48.812;9.112;2022-12-20T08:02:47;11.05;;;7.45;;
6809;SDS011;3443;48.812;9.112;2022-12-20T08:05:18;9.63;;;6.97;;
6809;SDS011;3443;48.812;9.112;2022-12-20T08:13:41;8.75;;;6.55;;
6809;SDS011;3443;48.812;9.112;2022-12-20T08:16:06;9.43;;;6.22;;
6809;SDS011;3443;48.812;9.112;2022-12-20T08:18:33;9.88;;;6.38;;
6809;SDS011;3443;48.812;9.112;2022-12-20T08:20:59;10.32;;;5.88;;
6809;SDS011;3443;48.812;9.112;2022-12-20T08:23:25;12.38;;;6.25;;
6809;SDS011;3443;48.812;9.112;2022-12-20T08:25:50;7.40;;;5.47;;
6809;SDS011;3443;48.812;9.112;2022-12-20T08:28:22;8.52;;;6.03;;
6809;SDS011;3443;48.812;9.112;2022-12-20T08:30:48;8.13;;;6.47;;
6809;SDS011;3443;48.812;9.112;2022-12-20T08:33:13;8.50;;;6.10;;
6809;SDS011;3443;48.812;9.112;2022-12-20T08:35:39;8.65;;;5.80;;
6809;SDS011;3443;48.812;9.112;2022-12-20T08:38:04;6.50;;;5.35;;
6809;SDS011;3443;48.812;9.112;2022-12-20T08:40:31;5.95;;;5.35;;
6809;SDS011;3443;48.812;9.112;2022-12-20T08:43:01;9.57;;;6.00;;
6809;SDS011;3443;48.812;9.112;2022-12-20T08:45:27;8.50;;;5.47;;
6809;SDS011;3443;48.812;9.112;2022-12-20T08:47:53;9.52;;;5.03;;
6809;SDS011;3443;48.812;9.112;2022-12-20T08:50:19;7.55;;;5.32;;
6809;SDS011;3443;48.812;9.112;2022-12-20T08:52:44;4.75;;;3.92;;
6809;SDS011;3443;48.812;9.112;2022-12-20T08:55:10;4.45;;;3.67;;
6809;SDS011;3443;48.812;9.112;2022-12-20T08:57:35;5.75;;;3.10;;
6809;SDS011;3443;48.812;9.112;2022-12-20T09:00:01;3.92;;;3.38;;
6809;SDS011;3443;48.812;9.112;2022-12-20T09:02:27;4.13;;;3.40;;
6809;SDS011;3443;48.812;9.112;2022-12-20T09:04:53;6.25;;;3.20;;
6809;SDS011;3443;48.812;9.112;2022-12-20T09:07:19;6.18;;;3.50;;
6809;SDS011;3443;48.812;9.112;2022-12-20T09:09:45;3.95;;;3.30;;
6809;SDS011;3443;48.812;9.112;2022-12-20T09:12:11;4.00;;;3.17;;
6809;SDS011;3443;48.812;9.112;2022-12-20T09:14:36;4.00;;;3.60;;
6809;SDS011;3443;48.812;9.112;2022-12-20T09:17:02;6.35;;;4.72;;
6809;SDS011;3443;48.812;9.112;2022-12-20T09:19:27;4.38;;;3.80;;
6809;SDS011;3443;48.812;9.112;2022-12-20T09:21:53;3.30;;;2.95;;
6809;SDS011;3443;48.812;9.112;2022-12-20T09:24:19;3.45;;;3.20;;
6809;SDS011;3443;48.812;9.112;2022-12-20T09:26:45;3.80;;;3.10;;
6809;SDS011;3443;48.812;9.112;2022-12-20T09:29:10;5.82;;;2.50;;
6809;SDS011;3443;48.812;9.112;2022-12-20T09:31:36;3.20;;;2.80;;
6809;SDS011;3443;48.812;9.112;2022-12-20T09:34:01;2.70;;;2.50;;
6809;SDS011;3443;48.812;9.112;2022-12-20T09:36:28;4.07;;;2.47;;
6809;SDS011;3443;48.812;9.112;2022-12-20T09:38:54;2.90;;;2.70;;
6809;SDS011;3443;48.812;9.112;2022-12-20T09:43:51;1.88;;;1.77;;
6809;SDS011;3443;48.812;9.112;2022-12-20T09:46:17;1.42;;;1.35;;
6809;SDS011;3443;48.812;9.112;2022-12-20T09:48:43;1.30;;;1.27;;
6809;SDS011;3443;48.812;9.112;2022-12-20T09:51:22;1.58;;;1.48;;
6809;SDS011;3443;48.812;9.112;2022-12-20T09:54:02;1.85;;;1.50;;
6809;SDS011;3443;48.812;9.112;2022-12-20T09:59:12;2.58;;;1.80;;
6809;SDS011;3443;48.812;9.112;2022-12-20T10:01:40;5.22;;;1.60;;
6809;SDS011;3443;48.812;9.112;2022-12-20T10:04:27;2.28;;;2.17;;
6809;SDS011;3443;48.812;9.112;2022-12-20T10:07:06;3.95;;;3.03;;
6809;SDS011;3443;48.812;9.112;2022-12-20T10:20:59;7.93;;;4.70;;
6809;SDS011;3443;48.812;9.112;2022-12-20T10:23:55;34.70;;;17.48;;
6809;SDS011;3443;48.812;9.112;2022-12-20T10:26:26;44.58;;;23.48;;
6809;SDS011;3443;48.812;9.112;2022-12-20T10:28:53;24.33;;;14.32;;
6809;SDS011;3443;48.812;9.112;2022-12-20T10:31:19;20.65;;;13.52;;
6809;SDS011;3443;48.812;9.112;2022-12-20T10:33:45;29.17;;;17.30;;
6809;SDS011;3443;48.812;9.112;2022-12-20T10:38:54;23.25;;;15.30;;
6809;SDS011;3443;48.812;9.112;2022-12-20T10:41:22;8.70;;;5.88;;
6809;SDS011;3443;48.812;9.112;2022-12-20T10:43:55;35.90;;;21.38;;
6809;SDS011;3443;48.812;9.112;2022-12-20T10:46:40;19.40;;;11.35;;
6809;SDS011;3443;48.812;9.112;2022-12-20T10:51:59;12.52;;;6.63;;
6809;SDS011;3443;48.812;9.112;2022-12-20T10:54:31;11.82;;;7.38;;
6809;SDS011;3443;48.812;9.112;2022-12-20T10:57:02;7.72;;;4.72;;
6809;SDS011;3443;48.812;9.112;2022-12-20T10:59:43;3.80;;;2.85;;
6809;SDS011;3443;48.812;9.112;2022-12-20T11:07:26;4.07;;;3.20;;
6809;SDS011;3443;48.812;9.112;2022-12-20T11:09:55;47.13;;;25.00;;
6809;SDS011;3443;48.812;9.112;2022-12-20T11:12:26;55.03;;;28.23;;
6809;SDS011;3443;48.812;9.112;2022-12-20T11:15:06;24.52;;;13.63;;
6809;SDS011;3443;48.812;9.112;2022-12-20T11:17:36;11.27;;;6.40;;
6809;SDS011;3443;48.812;9.112;2022-12-20T11:20:24;4.53;;;3.47;;
6809;SDS011;3443;48.812;9.112;2022-12-20T11:45:23;4.88;;;4.47;;
6809;SDS011;3443;48.812;9.112;2022-12-20T11:56:06;6.43;;;4.90;;
6809;SDS011;3443;48.812;9.112;2022-12-20T11:58:54;8.65;;;4.78;;
6809;SDS011;3443;48.812;9.112;2022-12-20T12:01:40;4.95;;;4.30;;
6809;SDS011;3443;48.812;9.112;2022-12-20T12:04:16;6.65;;;3.80;;
6809;SDS011;3443;48.812;9.112;2022-12-20T12:06:57;4.03;;;3.45;;
6809;SDS011;3443;48.812;9.112;2022-12-20T12:09:29;4.45;;;2.50;;
6809;SDS011;3443;48.812;9.112;2022-12-20T12:12:02;1.45;;;1.38;;
6809;SDS011;3443;48.812;9.112;2022-12-20T12:14:54;4.40;;;0.80;;
6809;SDS011;3443;48.812;9.112;2022-12-20T12:18:19;1.38;;;1.27;;
6809;SDS011;3443;48.812;9.112;2022-12-20T12:20:40;2.08;;;1.10;;
6809;SDS011;3443;48.812;9.112;2022-12-20T12:23:18;0.95;;;0.95;;
6809;SDS011;3443;48.812;9.112;2022-12-20T12:26:01;2.30;;;1.35;;
6809;SDS011;3443;48.812;9.112;2022-12-20T12:28:31;0.93;;;0.93;;
6809;SDS011;3443;48.812;9.112;2022-12-20T12:31:08;1.30;;;1.13;;
6809;SDS011;3443;48.812;9.112;2022-12-20T12:33:46;2.88;;;2.00;;
6809;SDS011;3443;48.812;9.112;2022-12-20T12:44:48;5.55;;;3.47;;
6809;SDS011;3443;48.812;9.112;2022-12-20T12:50:02;7.78;;;4.68;;
6809;SDS011;3443;48.812;9.112;2022-12-20T12:58:32;4.18;;;3.50;;
6809;SDS011;3443;48.812;9.112;2022-12-20T13:00:58;4.32;;;3.92;;
6809;SDS011;3443;48.812;9.112;2022-12-20T13:11:31;3.72;;;3.03;;
6809;SDS011;3443;48.812;9.112;2022-12-20T13:16:41;4.90;;;3.42;;
6809;SDS011;3443;48.812;9.112;2022-12-20T13:19:12;4.30;;;3.17;;
6809;SDS011;3443;48.812;9.112;2022-12-20T13:21:45;4.03;;;2.97;;
6809;SDS011;3443;48.812;9.112;2022-12-20T13:24:36;3.97;;;3.13;;
6809;SDS011;3443;48.812;9.112;2022-12-20T13:27:11;7.35;;;3.28;;
6809;SDS011;3443;48.812;9.112;2022-12-20T13:38:07;4.57;;;2.40;;
6809;SDS011;3443;48.812;9.112;2022-12-20T13:41:17;2.90;;;2.70;;
6809;SDS011;3443;48.812;9.112;2022-12-20T13:43:46;2.50;;;2.30;;
6809;SDS011;3443;48.812;9.112;2022-12-20T13:46:20;1.85;;;1.05;;
6809;SDS011;3443;48.812;9.112;2022-12-20T13:48:56;1.65;;;1.20;;
6809;SDS011;3443;48.812;9.112;2022-12-20T13:51:27;2.88;;;1.00;;
6809;SDS011;3443;48.812;9.112;2022-12-20T13:53:54;4.20;;;3.30;;
6809;SDS011;3443;48.812;9.112;2022-12-20T13:56:30;5.30;;;4.20;;
6809;SDS011;3443;48.812;9.112;2022-12-20T13:59:07;5.28;;;4.35;;
6809;SDS011;3443;48.812;9.112;2022-12-20T14:01:57;5.97;;;3.88;;
6809;SDS011;3443;48.812;9.112;2022-12-20T14:04:25;4.25;;;3.08;;
6809;SDS011;3443;48.812;9.112;2022-12-20T14:07:01;3.67;;;2.38;;
6809;SDS011;3443;48.812;9.112;2022-12-20T14:09:29;2.45;;;2.25;;
6809;SDS011;3443;48.812;9.112;2022-12-20T14:12:03;3.88;;;2.03;;
6809;SDS011;3443;48.812;9.112;2022-12-20T14:14:35;6.20;;;3.30;;
6809;SDS011;3443;48.812;9.112;2022-12-20T14:19:47;8.25;;;5.00;;
6809;SDS011;3443;48.812;9.112;2022-12-20T14:22:25;8.55;;;4.82;;
6809;SDS011;3443;48.812;9.112;2022-12-20T14:24:51;5.93;;;4.43;;
6809;SDS011;3443;48.812;9.112;2022-12-20T14:27:16;5.95;;;5.32;;
6809;SDS011;3443;48.812;9.112;2022-12-20T14:29:42;9.98;;;4.90;;
6809;SDS011;3443;48.812;9.112;2022-12-20T14:32:18;10.63;;;4.80;;
6809;SDS011;3443;48.812;9.112;2022-12-20T14:34:44;8.98;;;5.10;;
6809;SDS011;3443;48.812;9.112;2022-12-20T14:40:13;6.93;;;4.70;;
6809;SDS011;3443;48.812;9.112;2022-12-20T14:42:42;5.75;;;4.30;;
6809;SDS011;3443;48.812;9.112;2022-12-20T14:47:33;9.30;;;5.85;;
6809;SDS011;3443;48.812;9.112;2022-12-20T14:50:21;7.13;;;5.35;;
6809;SDS011;3443;48.812;9.112;2022-12-20T14:52:48;8.45;;;4.93;;
6809;SDS011;3443;48.812;9.112;2022-12-20T14:55:31;7.90;;;4.75;;
6809;SDS011;3443;48.812;9.112;2022-12-20T14:58:22;6.32;;;4.90;;
6809;SDS011;3443;48.812;9.112;2022-12-20T15:01:00;7.13;;;4.85;;
6809;SDS011;3443;48.812;9.112;2022-12-20T15:03:51;7.90;;;5.38;;
6809;SDS011;3443;48.812;9.112;2022-12-20T15:06:50;9.35;;;5.15;;
6809;SDS011;3443;48.812;9.112;2022-12-20T15:09:09;5.57;;;4.68;;
6809;SDS011;3443;48.812;9.112;2022-12-20T15:11:36;17.33;;;9.57;;
6809;SDS011;3443;48.812;9.112;2022-12-20T15:14:04;12.77;;;8.65;;
6809;SDS011;3443;48.812;9.112;2022-12-20T15:16:46;10.27;;;6.50;;
6809;SDS011;3443;48.812;9.112;2022-12-20T15:19:16;6.47;;;4.90;;
6809;SDS011;3443;48.812;9.112;2022-12-20T15:21:42;6.88;;;4.82;;
6809;SDS011;3443;48.812;9.112;2022-12-20T15:24:14;8.05;;;4.57;;
6809;SDS011;3443;48.812;9.112;2022-12-20T15:26:41;6.13;;;4.30;;
6809;SDS011;3443;48.812;9.112;2022-12-20T15:29:09;15.73;;;8.60;;
6809;SDS011;3443;48.812;9.112;2022-12-20T15:31:41;5.43;;;3.90;;
6809;SDS011;3443;48.812;9.112;2022-12-20T15:34:14;4.35;;;3.70;;
6809;SDS011;3443;48.812;9.112;2022-12-20T15:36:57;5.30;;;3.95;;
6809;SDS011;3443;48.812;9.112;2022-12-20T15:39:24;5.30;;;3.53;;
6809;SDS011;3443;48.812;9.112;2022-12-20T15:41:50;4.97;;;4.47;;
6809;SDS011;3443;48.812;9.112;2022-12-20T15:44:20;6.38;;;4.40;;
6809;SDS011;3443;48.812;9.112;2022-12-20T15:46:48;5.22;;;4.28;;
6809;SDS011;3443;48.812;9.112;2022-12-20T15:49:16;9.30;;;5.70;;
6809;SDS011;3443;48.812;9.112;2022-12-20T15:51:43;16.45;;;9.48;;
6809;SDS011;3443;48.812;9.112;2022-12-20T15:54:19;10.93;;;7.22;;
6809;SDS011;3443;48.812;9.112;2022-12-20T15:56:54;10.88;;;6.35;;
6809;SDS011;3443;48.812;9.112;2022-12-20T15:59:24;7.25;;;3.42;;
6809;SDS011;3443;48.812;9.112;2022-12-20T16:01:49;6.30;;;3.35;;
6809;SDS011;3443;48.812;9.112;2022-12-20T16:04:16;3.58;;;3.08;;
6809;SDS011;3443;48.812;9.112;2022-12-20T16:06:43;5.22;;;3.70;;
6809;SDS011;3443;48.812;9.112;2022-12-20T16:09:11;3.50;;;3.20;;
6809;SDS011;3443;48.812;9.112;2022-12-20T16:11:37;3.90;;;2.70;;
6809;SDS011;3443;48.812;9.112;2022-12-20T16:14:03;4.32;;;3.03;;
6809;SDS011;3443;48.812;9.112;2022-12-20T16:16:31;7.53;;;3.10;;
6809;SDS011;3443;48.812;9.112;2022-12-20T16:18:58;5.43;;;3.08;;
6809;SDS011;3443;48.812;9.112;2022-12-20T16:21:26;4.20;;;2.70;;
6809;SDS011;3443;48.812;9.112;2022-12-20T16:23:55;5.78;;;3.10;;
6809;SDS011;3443;48.812;9.112;2022-12-20T16:26:22;3.95;;;2.97;;
6809;SDS011;3443;48.812;9.112;2022-12-20T16:28:49;7.05;;;3.17;;
6809;SDS011;3443;48.812;9.112;2022-12-20T16:31:20;4.53;;;3.17;;
6809;SDS011;3443;48.812;9.112;2022-12-20T16:33:57;4.38;;;2.97;;
6809;SDS011;3443;48.812;9.112;2022-12-20T16:36:27;3.42;;;2.67;;
6809;SDS011;3443;48.812;9.112;2022-12-20T16:38:53;3.55;;;3.25;;
6809;SDS011;3443;48.812;9.112;2022-12-20T16:41:20;3.80;;;3.40;;
6809;SDS011;3443;48.812;9.112;2022-12-20T16:43:49;6.35;;;3.63;;
6809;SDS011;3443;48.812;9.112;2022-12-20T16:46:18;5.07;;;3.92;;
6809;SDS011;3443;48.812;9.112;2022-12-20T16:48:45;3.78;;;3.35;;
6809;SDS011;3443;48.812;9.112;2022-12-20T16:51:20;3.17;;;2.88;;
6809;SDS011;3443;48.812;9.112;2022-12-20T16:53:49;6.50;;;3.47;;
6809;SDS011;3443;48.812;9.112;2022-12-20T16:56:19;4.68;;;3.90;;
6809;SDS011;3443;48.812;9.112;2022-12-20T16:58:45;5.18;;;3.63;;
6809;SDS011;3443;48.812;9.112;2022-12-20T17:01:21;4.72;;;3.72;;
6809;SDS011;3443;48.812;9.112;2022-12-20T17:03:48;6.70;;;4.28;;
6809;SDS011;3443;48.812;9.112;2022-12-20T17:06:15;11.98;;;5.38;;
6809;SDS011;3443;48.812;9.112;2022-12-20T17:08:42;16.02;;;8.02;;
6809;SDS011;3443;48.812;9.112;2022-12-20T17:11:11;85.75;;;27.35;;
6809;SDS011;3443;48.812;9.112;2022-12-20T17:13:45;19.77;;;9.52;;
6809;SDS011;3443;48.812;9.112;2022-12-20T17:16:13;12.85;;;7.03;;
6809;SDS011;3443;48.812;9.112;2022-12-20T17:18:39;22.85;;;10.75;;
6809;SDS011;3443;48.812;9.112;2022-12-20T17:21:18;11.25;;;7.40;;
6809;SDS011;3443;48.812;9.112;2022-12-20T17:23:48;6.07;;;4.75;;
6809;SDS011;3443;48.812;9.112;2022-12-20T17:26:16;8.18;;;6.18;;
6809;SDS011;3443;48.812;9.112;2022-12-20T17:28:44;13.07;;;7.38;;
6809;SDS011;3443;48.812;9.112;2022-12-20T17:33:49;6.45;;;4.68;;
6809;SDS011;3443;48.812;9.112;2022-12-20T17:36:15;6.20;;;4.60;;
6809;SDS011;3443;48.812;9.112;2022-12-20T17:38:41;7.20;;;4.80;;